MUCM/CMW METAR and TAF weather

Enter ICAO airport designator
Station Type Date Time Source
MUCM METAR 2020/08/06 00:05 UTC NOAA

MUCM 060005Z AUTO 29006KT 25/24 Q1017


Station Type Date Time Source
MUCM Decoded METAR 2020/08/06 00:05 UTC NOAA

Camaguey Aeropuerto, Cuba (MUCM) 21-25N 077-51W 118M
Aug 05, 2020 - 08:05 PM EDT / 2020.08.06 0005 UTC
Wind: from the WNW (290 degrees) at 7 MPH (6 KT):0
Temperature: 77 F (25 C)
Dew Point: 75 F (24 C)
Relative Humidity: 94%
Pressure (altimeter): 30.03 in. Hg (1017 hPa)
ob: MUCM 060005Z AUTO 29006KT 25/24 Q1017
cycle: 0

Station Type Date Time Source
MUCM TAF 2020/08/05 18:05 UTC NOAA

TAF MUCM 051700Z 0518/0618 09006KT 9000 SCT020
TEMPO 0518/0524 VRB10KT 3000 TSRA SCT018CB BKN020
BECMG 0603/0605 03005KT
BECMG 0615/0617 07008KT

Example: see airport list